createdAt,value
2018-08-28T00:00:39.397Z,1010.26
2018-08-28T00:01:39.423Z,1010.29
2018-08-28T00:02:39.445Z,1010.29
2018-08-28T00:03:39.465Z,1010.31
2018-08-28T00:04:39.483Z,1010.33
2018-08-28T00:05:39.509Z,1010.32
2018-08-28T00:06:39.527Z,1010.31
2018-08-28T00:07:39.552Z,1010.37
2018-08-28T00:08:39.562Z,1010.35
2018-08-28T00:09:39.592Z,1010.37
2018-08-28T00:10:39.617Z,1010.40
2018-08-28T00:11:39.630Z,1010.37
2018-08-28T00:12:39.660Z,1010.38
2018-08-28T00:13:39.684Z,1010.41
2018-08-28T00:14:39.695Z,1010.38
2018-08-28T00:15:39.721Z,1010.42
2018-08-28T00:16:39.736Z,1010.41
2018-08-28T00:17:39.764Z,1010.40
2018-08-28T00:18:39.783Z,1010.45
2018-08-28T00:19:39.799Z,1010.44
2018-08-28T00:20:39.826Z,1010.48
2018-08-28T00:21:39.851Z,1010.45
2018-08-28T00:22:39.868Z,1010.49
2018-08-28T00:23:39.895Z,1010.50
2018-08-28T00:24:39.916Z,1010.47
2018-08-28T00:25:39.932Z,1010.54
2018-08-28T00:26:39.960Z,1010.57
2018-08-28T00:27:39.973Z,1010.54
2018-08-28T00:28:39.998Z,1010.56
2018-08-28T00:29:40.023Z,1010.57
2018-08-28T00:30:40.033Z,1010.62
2018-08-28T00:31:40.059Z,1010.61
2018-08-28T00:32:40.091Z,1010.65
2018-08-28T00:33:40.118Z,1010.68
2018-08-28T00:34:40.126Z,1010.71
2018-08-28T00:35:40.141Z,1010.70
2018-08-28T00:36:40.164Z,1010.68
2018-08-28T00:37:40.190Z,1010.70
2018-08-28T00:38:40.208Z,1010.72
2018-08-28T00:39:40.233Z,1010.72
2018-08-28T00:40:40.263Z,1010.75
2018-08-28T00:41:40.268Z,1010.76
2018-08-28T00:42:40.298Z,1010.74
2018-08-28T00:43:40.325Z,1010.76
2018-08-28T00:44:40.340Z,1010.76
2018-08-28T00:45:40.365Z,1010.82
2018-08-28T00:46:40.377Z,1010.83
2018-08-28T00:47:40.402Z,1010.83
2018-08-28T00:48:40.433Z,1010.85
2018-08-28T00:49:40.443Z,1010.85
2018-08-28T00:50:40.464Z,1010.86
2018-08-28T00:51:40.490Z,1010.91
2018-08-28T00:52:40.507Z,1010.92
2018-08-28T00:53:40.532Z,1010.91
2018-08-28T00:54:40.549Z,1010.93
2018-08-28T00:55:40.575Z,1010.91
2018-08-28T00:56:40.594Z,1010.94
2018-08-28T00:57:40.608Z,1010.96
2018-08-28T00:58:40.639Z,1010.99
2018-08-28T00:59:40.664Z,1011.04
2018-08-28T01:00:40.679Z,1011.04
2018-08-28T01:01:40.706Z,1011.10
2018-08-28T01:02:40.727Z,1011.04
2018-08-28T01:03:40.745Z,1011.07
2018-08-28T01:04:40.769Z,1011.04
2018-08-28T01:05:40.783Z,1011.06
2018-08-28T01:06:40.803Z,1011.09
2018-08-28T01:07:40.831Z,1011.06
2018-08-28T01:08:40.846Z,1011.07
2018-08-28T01:09:40.872Z,1011.08
2018-08-28T01:10:40.902Z,1011.06
2018-08-28T01:11:40.915Z,1011.09
2018-08-28T01:12:40.936Z,1011.09
2018-08-28T01:13:40.963Z,1011.11
2018-08-28T01:14:41.067Z,1011.12
2018-08-28T01:15:41.009Z,1011.07
2018-08-28T01:16:41.022Z,1011.10
2018-08-28T01:17:41.043Z,1011.14
2018-08-28T01:18:41.066Z,1011.15
2018-08-28T01:19:41.079Z,1011.17
2018-08-28T01:20:41.111Z,1011.14
2018-08-28T01:21:41.137Z,1011.18
2018-08-28T01:22:41.146Z,1011.22
2018-08-28T01:23:41.172Z,1011.21
2018-08-28T01:24:41.184Z,1011.24
2018-08-28T01:25:41.211Z,1011.27
2018-08-28T01:26:41.241Z,1011.27
2018-08-28T01:27:41.254Z,1011.33
2018-08-28T01:28:41.275Z,1011.35
2018-08-28T01:29:41.302Z,1011.35
2018-08-28T01:30:41.319Z,1011.31
2018-08-28T01:31:41.345Z,1011.29
2018-08-28T01:32:41.373Z,1011.30
2018-08-28T01:33:41.386Z,1011.31
2018-08-28T01:34:41.408Z,1011.32
2018-08-28T01:35:41.421Z,1011.33
2018-08-28T01:36:41.449Z,1011.34
2018-08-28T01:37:41.476Z,1011.35
2018-08-28T01:38:41.497Z,1011.36
2018-08-28T01:39:41.510Z,1011.36
2018-08-28T01:40:41.538Z,1011.35
2018-08-28T01:41:41.553Z,1011.36
2018-08-28T01:42:41.583Z,1011.38
2018-08-28T01:43:41.609Z,1011.39
2018-08-28T01:44:41.618Z,1011.40
2018-08-28T01:45:41.657Z,1011.41
2018-08-28T01:46:41.661Z,1011.41
2018-08-28T01:47:41.687Z,1011.40
2018-08-28T01:48:41.711Z,1011.44
2018-08-28T01:49:41.724Z,1011.46
2018-08-28T01:50:41.747Z,1011.46
2018-08-28T01:51:41.771Z,1011.44
2018-08-28T01:52:41.792Z,1011.47
2018-08-28T01:53:41.818Z,1011.45
2018-08-28T01:54:41.827Z,1011.50
2018-08-28T01:55:41.853Z,1011.47
2018-08-28T01:56:41.875Z,1011.47
2018-08-28T01:57:41.891Z,1011.53
2018-08-28T01:58:41.920Z,1011.53
2018-08-28T01:59:41.946Z,1011.52
2018-08-28T02:00:41.959Z,1011.55
2018-08-28T02:01:41.987Z,1011.55
2018-08-28T02:02:42.001Z,1011.56
2018-08-28T02:03:42.021Z,1011.52
2018-08-28T02:04:42.058Z,1011.52
2018-08-28T02:05:42.063Z,1011.53
2018-08-28T02:06:42.093Z,1011.56
2018-08-28T02:07:42.122Z,1011.55
2018-08-28T02:08:42.125Z,1011.56
2018-08-28T02:09:42.152Z,1011.53
2018-08-28T02:10:42.171Z,1011.56
2018-08-28T02:11:42.195Z,1011.54
2018-08-28T02:12:42.223Z,1011.54
2018-08-28T02:13:42.241Z,1011.52
2018-08-28T02:14:42.263Z,1011.53
2018-08-28T02:15:42.285Z,1011.53
2018-08-28T02:16:42.301Z,1011.50
2018-08-28T02:17:42.328Z,1011.53
2018-08-28T02:18:42.340Z,1011.58
2018-08-28T02:19:42.364Z,1011.54
2018-08-28T02:20:42.387Z,1011.57
2018-08-28T02:21:42.401Z,1011.52
2018-08-28T02:22:42.430Z,1011.55
2018-08-28T02:23:42.470Z,1011.50
2018-08-28T02:24:42.469Z,1011.53
2018-08-28T02:25:42.497Z,1011.53
2018-08-28T02:26:42.510Z,1011.51
2018-08-28T02:27:42.538Z,1011.55
2018-08-28T02:28:42.561Z,1011.56
2018-08-28T02:29:42.575Z,1011.56
2018-08-28T02:30:42.597Z,1011.52
2018-08-28T02:31:42.609Z,1011.55
2018-08-28T02:32:42.640Z,1011.53
2018-08-28T02:33:42.680Z,1011.56
2018-08-28T02:34:42.681Z,1011.55
2018-08-28T02:35:42.701Z,1011.53
2018-08-28T02:36:42.718Z,1011.53
2018-08-28T02:37:42.757Z,1011.56
2018-08-28T02:38:42.775Z,1011.56
2018-08-28T02:39:42.788Z,1011.58
2018-08-28T02:40:42.806Z,1011.59
2018-08-28T02:41:42.822Z,1011.59
2018-08-28T02:42:42.850Z,1011.57
2018-08-28T02:43:42.876Z,1011.58
2018-08-28T02:44:42.923Z,1011.61
2018-08-28T02:45:42.917Z,1011.60
2018-08-28T02:46:42.939Z,1011.59
2018-08-28T02:47:42.952Z,1011.57
2018-08-28T02:48:42.985Z,1011.60
2018-08-28T02:49:42.996Z,1011.58
2018-08-28T02:50:43.018Z,1011.54
2018-08-28T02:51:43.044Z,1011.57
2018-08-28T02:52:43.054Z,1011.58
2018-08-28T02:53:43.081Z,1011.57
2018-08-28T02:54:43.099Z,1011.59
2018-08-28T02:55:43.125Z,1011.62
2018-08-28T02:56:43.149Z,1011.59
2018-08-28T02:57:43.161Z,1011.60
2018-08-28T02:58:43.205Z,1011.61
2018-08-28T02:59:43.206Z,1011.62
2018-08-28T03:00:43.230Z,1011.66
2018-08-28T03:01:43.256Z,1011.61
2018-08-28T03:02:43.264Z,1011.64
2018-08-28T03:03:43.295Z,1011.70
2018-08-28T03:04:43.309Z,1011.70
2018-08-28T03:05:43.336Z,1011.73
2018-08-28T03:06:43.358Z,1011.73
2018-08-28T03:07:43.372Z,1011.75
2018-08-28T03:08:43.394Z,1011.78
2018-08-28T03:09:43.409Z,1011.78
2018-08-28T03:10:43.443Z,1011.77
2018-08-28T03:11:43.551Z,1011.75
2018-08-28T03:12:43.490Z,1011.79
2018-08-28T03:13:43.506Z,1011.86
2018-08-28T03:14:43.521Z,1011.91
2018-08-28T03:15:43.546Z,1011.90
2018-08-28T03:16:43.571Z,1011.86
2018-08-28T03:17:43.583Z,1011.90
2018-08-28T03:18:43.605Z,1011.90
2018-08-28T03:19:43.619Z,1011.83
2018-08-28T03:20:43.648Z,1011.89
2018-08-28T03:21:43.675Z,1011.89
2018-08-28T03:22:43.683Z,1011.92
2018-08-28T03:23:43.710Z,1011.90
2018-08-28T03:24:43.728Z,1011.98
2018-08-28T03:25:43.751Z,1011.97
2018-08-28T03:26:43.781Z,1011.99
2018-08-28T03:27:43.794Z,1011.98
2018-08-28T03:28:43.816Z,1012.02
2018-08-28T03:29:43.828Z,1011.98
2018-08-28T03:30:43.858Z,1012.01
2018-08-28T03:31:43.885Z,1012.01
2018-08-28T03:32:43.899Z,1012.07
2018-08-28T03:33:43.925Z,1012.03
2018-08-28T03:34:43.935Z,1012.06
2018-08-28T03:35:43.961Z,1012.04
2018-08-28T03:36:43.990Z,1012.08
2018-08-28T03:37:44.003Z,1012.12
2018-08-28T03:38:44.025Z,1012.13
2018-08-28T03:39:44.039Z,1012.16
2018-08-28T03:40:44.064Z,1012.20
2018-08-28T03:41:44.092Z,1012.22
2018-08-28T03:42:44.107Z,1012.21
2018-08-28T03:43:44.132Z,1012.20
2018-08-28T03:44:44.165Z,1012.23
2018-08-28T03:45:44.170Z,1012.22
2018-08-28T03:46:44.200Z,1012.28
2018-08-28T03:47:44.213Z,1012.27
2018-08-28T03:48:44.237Z,1012.28
2018-08-28T03:49:44.264Z,1012.29
2018-08-28T03:50:44.274Z,1012.29
2018-08-28T03:51:44.299Z,1012.25
2018-08-28T03:52:44.316Z,1012.25
2018-08-28T03:53:44.399Z,1012.24
2018-08-28T03:54:44.352Z,1012.25
2018-08-28T03:55:44.384Z,1012.29
2018-08-28T03:56:44.406Z,1012.27
2018-08-28T03:57:44.418Z,1012.30
2018-08-28T03:58:44.448Z,1012.30
2018-08-28T03:59:44.465Z,1012.29
2018-08-28T04:00:44.483Z,1012.33
2018-08-28T04:01:44.511Z,1012.38
2018-08-28T04:02:44.526Z,1012.33
2018-08-28T04:03:44.601Z,1012.35
2018-08-28T04:04:44.568Z,1012.35
2018-08-28T04:05:44.594Z,1012.34
2018-08-28T04:06:44.615Z,1012.33
2018-08-28T04:07:44.628Z,1012.37
2018-08-28T04:08:44.653Z,1012.37
2018-08-28T04:09:44.670Z,1012.33
2018-08-28T04:10:44.698Z,1012.34
2018-08-28T04:11:44.728Z,1012.38
2018-08-28T04:12:44.736Z,1012.40
2018-08-28T04:13:44.761Z,1012.36
2018-08-28T04:14:44.770Z,1012.39
2018-08-28T04:15:44.797Z,1012.38
2018-08-28T04:16:44.829Z,1012.41
2018-08-28T04:17:44.842Z,1012.42
2018-08-28T04:18:44.864Z,1012.42
2018-08-28T04:19:44.878Z,1012.43
2018-08-28T04:20:44.901Z,1012.44
2018-08-28T04:21:44.933Z,1012.47
2018-08-28T04:22:44.945Z,1012.48
2018-08-28T04:23:44.972Z,1012.51
2018-08-28T04:24:44.981Z,1012.48
2018-08-28T04:25:45.008Z,1012.53
2018-08-28T04:26:45.040Z,1012.52
2018-08-28T04:27:45.051Z,1012.51
2018-08-28T04:28:45.078Z,1012.52
2018-08-28T04:29:45.092Z,1012.56
2018-08-28T04:30:45.116Z,1012.57
2018-08-28T04:31:45.140Z,1012.57
2018-08-28T04:32:45.155Z,1012.58
2018-08-28T04:33:45.180Z,1012.61
2018-08-28T04:34:45.191Z,1012.59
2018-08-28T04:35:45.242Z,1012.61
2018-08-28T04:36:45.233Z,1012.60
2018-08-28T04:37:45.257Z,1012.60
2018-08-28T04:38:45.287Z,1012.62
2018-08-28T04:39:45.305Z,1012.63
2018-08-28T04:40:45.323Z,1012.65
2018-08-28T04:41:45.378Z,1012.66
2018-08-28T04:42:45.367Z,1012.68
2018-08-28T04:43:45.392Z,1012.72
2018-08-28T04:44:45.407Z,1012.68
2018-08-28T04:45:45.430Z,1012.69
2018-08-28T04:46:45.441Z,1012.70
2018-08-28T04:47:45.471Z,1012.76
2018-08-28T04:48:45.515Z,1012.74
2018-08-28T04:49:45.511Z,1012.72
2018-08-28T04:50:45.533Z,1012.75
2018-08-28T04:51:45.547Z,1012.74
2018-08-28T04:52:45.570Z,1012.75
2018-08-28T04:53:45.598Z,1012.78
2018-08-28T04:54:45.655Z,1012.79
2018-08-28T04:55:45.640Z,1012.81
2018-08-28T04:56:45.650Z,1012.83
2018-08-28T04:57:45.676Z,1012.82
2018-08-28T04:58:45.704Z,1012.84
2018-08-28T04:59:45.718Z,1012.84
2018-08-28T05:00:45.771Z,1012.84
2018-08-28T05:01:45.760Z,1012.85
2018-08-28T05:02:45.781Z,1012.87
2018-08-28T05:03:45.811Z,1012.85
2018-08-28T05:04:45.823Z,1012.88
2018-08-28T05:05:45.871Z,1012.91
2018-08-28T05:06:45.858Z,1012.91
2018-08-28T05:07:45.898Z,1012.92
2018-08-28T05:08:46.093Z,1012.92
2018-08-28T05:09:45.935Z,1012.92
2018-08-28T05:10:45.958Z,1012.91
2018-08-28T05:11:46.036Z,1012.93
2018-08-28T05:12:45.990Z,1012.95
2018-08-28T05:13:46.028Z,1012.99
2018-08-28T05:14:46.034Z,1012.96
2018-08-28T05:15:46.084Z,1012.99
2018-08-28T05:16:46.074Z,1012.98
2018-08-28T05:17:46.100Z,1012.93
2018-08-28T05:18:46.175Z,1013.01
2018-08-28T05:19:46.136Z,1012.96
2018-08-28T05:20:46.164Z,1013.03
2018-08-28T05:21:46.190Z,1013.01
2018-08-28T05:22:46.199Z,1013.03
2018-08-28T05:23:46.236Z,1013.05
2018-08-28T05:24:46.240Z,1013.05
2018-08-28T05:25:46.266Z,1013.04
2018-08-28T05:26:46.285Z,1013.04
2018-08-28T05:27:46.323Z,1013.11
2018-08-28T05:28:46.331Z,1013.05
2018-08-28T05:29:46.345Z,1013.03
2018-08-28T05:30:46.376Z,1013.05
2018-08-28T05:31:46.402Z,1013.09
2018-08-28T05:32:46.414Z,1013.07
2018-08-28T05:33:46.438Z,1013.09
2018-08-28T05:34:46.449Z,1013.12
2018-08-28T05:35:46.476Z,1013.14
2018-08-28T05:36:46.505Z,1013.15
2018-08-28T05:37:46.519Z,1013.19
2018-08-28T05:38:46.541Z,1013.12
2018-08-28T05:39:46.569Z,1013.14
2018-08-28T05:40:46.579Z,1013.17
2018-08-28T05:41:46.608Z,1013.21
2018-08-28T05:42:46.621Z,1013.22
2018-08-28T05:43:46.648Z,1013.18
2018-08-28T05:44:46.669Z,1013.18
2018-08-28T05:45:46.683Z,1013.21
2018-08-28T05:46:46.714Z,1013.23
2018-08-28T05:47:46.727Z,1013.20
2018-08-28T05:48:46.767Z,1013.19
2018-08-28T05:49:46.781Z,1013.24
2018-08-28T05:50:46.791Z,1013.19
2018-08-28T05:51:46.815Z,1013.20
2018-08-28T05:52:46.844Z,1013.17
2018-08-28T05:53:46.858Z,1013.20
2018-08-28T05:54:46.878Z,1013.18
2018-08-28T05:55:46.929Z,1013.22
2018-08-28T05:56:46.921Z,1013.21
2018-08-28T05:57:46.946Z,1013.22
2018-08-28T05:58:46.964Z,1013.23
2018-08-28T05:59:46.990Z,1013.25
2018-08-28T06:00:47.011Z,1013.27
2018-08-28T06:01:47.026Z,1013.27
2018-08-28T06:02:47.055Z,1013.27
2018-08-28T06:03:47.084Z,1013.25
2018-08-28T06:04:47.093Z,1013.25
2018-08-28T06:05:47.125Z,1013.29
2018-08-28T06:06:47.129Z,1013.29
2018-08-28T06:07:47.154Z,1013.32
2018-08-28T06:08:47.221Z,1013.33
2018-08-28T06:09:47.199Z,1013.28
2018-08-28T06:10:47.222Z,1013.34
2018-08-28T06:11:47.247Z,1013.36
2018-08-28T06:12:47.258Z,1013.36
2018-08-28T06:13:47.285Z,1013.32
2018-08-28T06:14:47.399Z,1013.33
2018-08-28T06:15:47.327Z,1013.38
2018-08-28T06:16:47.356Z,1013.35
2018-08-28T06:17:47.374Z,1013.34
2018-08-28T06:18:47.391Z,1013.37
2018-08-28T06:19:47.417Z,1013.38
2018-08-28T06:20:47.429Z,1013.37
2018-08-28T06:21:47.459Z,1013.38
2018-08-28T06:22:47.484Z,1013.40
2018-08-28T06:23:47.501Z,1013.41
2018-08-28T06:24:47.522Z,1013.41
2018-08-28T06:25:47.549Z,1013.42
2018-08-28T06:26:47.570Z,1013.40
2018-08-28T06:27:47.591Z,1013.46
2018-08-28T06:28:47.615Z,1013.47
2018-08-28T06:29:47.632Z,1013.48
2018-08-28T06:30:47.650Z,1013.53
2018-08-28T06:31:47.680Z,1013.53
2018-08-28T06:32:47.694Z,1013.56
2018-08-28T06:33:47.736Z,1013.53
2018-08-28T06:34:47.742Z,1013.58
2018-08-28T06:35:47.757Z,1013.52
2018-08-28T06:36:47.784Z,1013.54
2018-08-28T06:37:47.811Z,1013.56
2018-08-28T06:38:47.895Z,1013.61
2018-08-28T06:39:47.868Z,1013.61
2018-08-28T06:40:47.879Z,1013.62
2018-08-28T06:41:47.887Z,1013.62
2018-08-28T06:42:47.918Z,1013.61
2018-08-28T06:43:47.981Z,1013.64
2018-08-28T06:44:47.958Z,1013.61
2018-08-28T06:45:47.984Z,1013.61
2018-08-28T06:46:48.019Z,1013.63
2018-08-28T06:47:48.033Z,1013.65
2018-08-28T06:48:48.050Z,1013.65
2018-08-28T06:49:48.076Z,1013.64
2018-08-28T06:50:48.097Z,1013.69
2018-08-28T06:51:48.124Z,1013.65
2018-08-28T06:52:48.134Z,1013.72
2018-08-28T06:53:48.160Z,1013.66
2018-08-28T06:54:48.190Z,1013.70
2018-08-28T06:55:48.217Z,1013.69
2018-08-28T06:56:48.278Z,1013.66
2018-08-28T06:57:48.253Z,1013.68
2018-08-28T06:58:48.284Z,1013.70
2018-08-28T06:59:48.310Z,1013.69
2018-08-28T07:00:48.339Z,1013.67
2018-08-28T07:01:48.347Z,1013.66
2018-08-28T07:02:48.370Z,1013.69
2018-08-28T07:03:48.405Z,1013.65
2018-08-28T07:04:48.425Z,1013.72
2018-08-28T07:05:48.464Z,1013.71
2018-08-28T07:06:48.473Z,1013.67
2018-08-28T07:07:48.500Z,1013.68
2018-08-28T07:08:48.515Z,1013.73
2018-08-28T07:09:48.540Z,1013.75
2018-08-28T07:10:48.571Z,1013.73
2018-08-28T07:11:48.596Z,1013.76
2018-08-28T07:12:48.616Z,1013.81
2018-08-28T07:13:48.643Z,1013.81
2018-08-28T07:14:48.662Z,1013.80
2018-08-28T07:15:48.703Z,1013.87
2018-08-28T07:16:48.713Z,1013.85
2018-08-28T07:17:48.744Z,1013.85
2018-08-28T07:18:48.839Z,1013.85
2018-08-28T07:19:48.800Z,1013.84
2018-08-28T07:20:48.815Z,1013.89
2018-08-28T07:21:48.841Z,1013.87
2018-08-28T07:22:48.855Z,1013.85
2018-08-28T07:23:48.921Z,1013.87
2018-08-28T07:24:48.905Z,1013.93
2018-08-28T07:25:49.051Z,1013.90
2018-08-28T07:26:48.964Z,1013.92
2018-08-28T07:27:48.990Z,1013.95
2018-08-28T07:28:49.011Z,1013.97
2018-08-28T07:29:49.032Z,1013.95
2018-08-28T07:30:49.063Z,1013.94
2018-08-28T07:31:49.155Z,1013.98
2018-08-28T07:32:49.103Z,1014.02
2018-08-28T07:33:49.130Z,1014.01
2018-08-28T07:34:49.153Z,1013.95
2018-08-28T07:35:49.178Z,1013.99
2018-08-28T07:36:49.220Z,1013.96
2018-08-28T07:37:49.234Z,1014.00
2018-08-28T07:38:49.259Z,1014.00
2018-08-28T07:39:49.281Z,1013.99
2018-08-28T07:40:49.305Z,1014.05
2018-08-28T07:41:49.332Z,1014.08
2018-08-28T07:42:49.390Z,1014.10
2018-08-28T07:43:49.387Z,1014.14
2018-08-28T07:44:49.410Z,1014.07
2018-08-28T07:45:49.438Z,1014.09
2018-08-28T07:46:49.467Z,1014.12
2018-08-28T07:47:49.493Z,1014.08
2018-08-28T07:48:49.526Z,1014.08
2018-08-28T07:49:49.544Z,1014.12
2018-08-28T07:50:49.564Z,1014.13
2018-08-28T07:51:49.603Z,1014.14
2018-08-28T07:52:49.621Z,1014.13
2018-08-28T07:53:49.668Z,1014.12
2018-08-28T07:54:49.668Z,1014.13
2018-08-28T07:55:49.695Z,1014.13
2018-08-28T07:56:49.722Z,1014.14
2018-08-28T07:57:49.761Z,1014.18
2018-08-28T07:58:49.779Z,1014.16
2018-08-28T07:59:49.808Z,1014.15
2018-08-28T08:00:49.826Z,1014.18
2018-08-28T08:01:49.852Z,1014.15
2018-08-28T08:02:49.880Z,1014.20
2018-08-28T08:03:49.906Z,1014.15
2018-08-28T08:04:49.934Z,1014.22
2018-08-28T08:05:49.960Z,1014.23
2018-08-28T08:06:49.995Z,1014.21
2018-08-28T08:07:50.011Z,1014.24
2018-08-28T08:08:50.038Z,1014.24
2018-08-28T08:09:50.064Z,1014.25
2018-08-28T08:10:50.088Z,1014.24
2018-08-28T08:11:50.112Z,1014.28
2018-08-28T08:12:50.152Z,1014.26
2018-08-28T08:13:50.161Z,1014.25
2018-08-28T08:14:50.193Z,1014.27
2018-08-28T08:15:50.218Z,1014.26
2018-08-28T08:16:50.243Z,1014.27
2018-08-28T08:17:50.270Z,1014.27
2018-08-28T08:18:50.298Z,1014.23
2018-08-28T08:19:50.324Z,1014.31
2018-08-28T08:20:50.347Z,1014.33
2018-08-28T08:21:50.361Z,1014.28
2018-08-28T08:22:50.383Z,1014.30
2018-08-28T08:23:50.413Z,1014.30
2018-08-28T08:24:50.438Z,1014.27
2018-08-28T08:25:50.461Z,1014.32
2018-08-28T08:26:50.492Z,1014.30
2018-08-28T08:27:50.551Z,1014.29
2018-08-28T08:28:50.548Z,1014.28
2018-08-28T08:29:50.562Z,1014.34
2018-08-28T08:30:50.581Z,1014.38
2018-08-28T08:31:50.605Z,1014.41
2018-08-28T08:32:50.635Z,1014.41
2018-08-28T08:33:50.674Z,1014.43
2018-08-28T08:34:50.681Z,1014.46
2018-08-28T08:35:50.713Z,1014.41
2018-08-28T08:36:50.740Z,1014.39
2018-08-28T08:37:50.765Z,1014.39
2018-08-28T08:38:50.792Z,1014.42
2018-08-28T08:39:50.817Z,1014.42
2018-08-28T08:40:50.828Z,1014.39
2018-08-28T08:41:50.868Z,1014.46
2018-08-28T08:42:50.884Z,1014.39
2018-08-28T08:43:50.916Z,1014.44
2018-08-28T08:44:50.937Z,1014.43
2018-08-28T08:45:50.959Z,1014.43
2018-08-28T08:46:50.985Z,1014.47
2018-08-28T08:47:51.011Z,1014.45
2018-08-28T08:48:51.040Z,1014.52
2018-08-28T08:49:51.064Z,1014.50
2018-08-28T08:50:51.074Z,1014.48
2018-08-28T08:51:51.099Z,1014.45
2018-08-28T08:52:51.124Z,1014.47
2018-08-28T08:53:51.150Z,1014.42
2018-08-28T08:54:51.208Z,1014.44
2018-08-28T08:55:51.219Z,1014.48
2018-08-28T08:56:51.228Z,1014.59
2018-08-28T08:57:51.256Z,1014.57
2018-08-28T08:58:51.284Z,1014.56
2018-08-28T08:59:51.311Z,1014.52
2018-08-28T09:00:51.327Z,1014.56
2018-08-28T09:01:51.352Z,1014.59
2018-08-28T09:02:51.374Z,1014.63
2018-08-28T09:03:51.414Z,1014.66
2018-08-28T09:04:51.440Z,1014.60
2018-08-28T09:05:51.483Z,1014.54
2018-08-28T09:06:51.482Z,1014.54
2018-08-28T09:07:51.506Z,1014.55
2018-08-28T09:08:51.533Z,1014.55
2018-08-28T09:09:51.557Z,1014.55
2018-08-28T09:10:51.590Z,1014.56
2018-08-28T09:11:51.611Z,1014.57
2018-08-28T09:12:51.623Z,1014.53
2018-08-28T09:13:51.647Z,1014.49
2018-08-28T09:14:51.677Z,1014.50
2018-08-28T09:15:51.704Z,1014.46
2018-08-28T09:16:51.739Z,1014.50
2018-08-28T09:17:51.753Z,1014.54
2018-08-28T09:18:51.774Z,1014.48
2018-08-28T09:19:51.806Z,1014.48
2018-08-28T09:20:51.836Z,1014.51
2018-08-28T09:21:51.861Z,1014.54
2018-08-28T09:22:51.881Z,1014.51
2018-08-28T09:23:51.907Z,1014.54
2018-08-28T09:24:51.942Z,1014.51
2018-08-28T09:25:51.960Z,1014.52
2018-08-28T09:26:51.990Z,1014.47
2018-08-28T09:27:52.012Z,1014.52
2018-08-28T09:28:52.039Z,1014.51
2018-08-28T09:29:52.064Z,1014.49
2018-08-28T09:30:52.092Z,1014.48
2018-08-28T09:31:52.118Z,1014.49
2018-08-28T09:32:52.142Z,1014.46
2018-08-28T09:33:52.167Z,1014.49
2018-08-28T09:34:52.189Z,1014.45
2018-08-28T09:35:52.214Z,1014.47
2018-08-28T09:36:52.247Z,1014.47
2018-08-28T09:37:52.276Z,1014.42
2018-08-28T09:38:52.358Z,1014.44
2018-08-28T09:39:52.321Z,1014.43
2018-08-28T09:40:52.344Z,1014.46
2018-08-28T09:41:52.370Z,1014.48
2018-08-28T09:42:52.400Z,1014.52
2018-08-28T09:43:52.517Z,1014.57
2018-08-28T09:44:52.447Z,1014.55
2018-08-28T09:45:52.474Z,1014.52
2018-08-28T09:46:52.518Z,1014.49
2018-08-28T09:47:52.572Z,1014.44
2018-08-28T09:48:52.557Z,1014.47
2018-08-28T09:49:52.658Z,1014.45
2018-08-28T09:50:52.620Z,1014.47
2018-08-28T09:51:52.634Z,1014.42
2018-08-28T09:52:52.673Z,1014.43
2018-08-28T09:53:52.685Z,1014.41
2018-08-28T09:54:52.707Z,1014.46
2018-08-28T09:55:52.733Z,1014.50
2018-08-28T09:56:52.763Z,1014.51
2018-08-28T09:57:52.787Z,1014.54
2018-08-28T09:58:52.821Z,1014.51
2018-08-28T09:59:52.843Z,1014.40
2018-08-28T10:00:52.870Z,1014.40
2018-08-28T10:01:52.903Z,1014.40
2018-08-28T10:02:52.921Z,1014.42
2018-08-28T10:03:52.948Z,1014.35
2018-08-28T10:04:53.030Z,1014.37
2018-08-28T10:05:52.997Z,1014.37
2018-08-28T10:06:53.019Z,1014.36
2018-08-28T10:07:53.124Z,1014.42
2018-08-28T10:08:53.077Z,1014.49
2018-08-28T10:09:53.104Z,1014.56
2018-08-28T10:10:53.147Z,1014.52
2018-08-28T10:11:53.151Z,1014.58
2018-08-28T10:12:53.175Z,1014.50
2018-08-28T10:13:53.203Z,1014.49
2018-08-28T10:14:53.232Z,1014.45
2018-08-28T10:15:53.257Z,1014.44
2018-08-28T10:16:53.291Z,1014.46
2018-08-28T10:17:53.304Z,1014.47
2018-08-28T10:18:53.335Z,1014.45
2018-08-28T10:19:53.362Z,1014.46
2018-08-28T10:20:53.389Z,1014.50
2018-08-28T10:21:53.428Z,1014.47
2018-08-28T10:22:53.487Z,1014.48
2018-08-28T10:23:53.478Z,1014.45
2018-08-28T10:24:53.504Z,1014.49
2018-08-28T10:25:53.530Z,1014.46
2018-08-28T10:26:53.552Z,1014.53
2018-08-28T10:27:53.578Z,1014.55
2018-08-28T10:28:53.606Z,1014.50
2018-08-28T10:29:53.666Z,1014.56
2018-08-28T10:30:53.661Z,1014.52
2018-08-28T10:31:53.700Z,1014.48
2018-08-28T10:32:53.726Z,1014.51
2018-08-28T10:33:53.752Z,1014.48
2018-08-28T10:34:53.773Z,1014.53
2018-08-28T10:35:53.799Z,1014.57
2018-08-28T10:36:53.836Z,1014.59
2018-08-28T10:37:53.867Z,1014.56
2018-08-28T10:38:53.892Z,1014.57
2018-08-28T10:39:53.918Z,1014.58
2018-08-28T10:40:53.953Z,1014.60
2018-08-28T10:41:53.979Z,1014.68
2018-08-28T10:42:54.013Z,1014.65
2018-08-28T10:43:54.036Z,1014.72
2018-08-28T10:44:54.077Z,1014.73
2018-08-28T10:45:54.103Z,1014.70
2018-08-28T10:46:54.250Z,1014.71
2018-08-28T10:47:54.147Z,1014.69
2018-08-28T10:48:54.188Z,1014.74
2018-08-28T10:49:54.227Z,1014.68
2018-08-28T10:50:54.236Z,1014.64
2018-08-28T10:51:54.262Z,1014.60
2018-08-28T10:52:54.312Z,1014.62
2018-08-28T10:53:54.331Z,1014.60
2018-08-28T10:54:54.363Z,1014.64
2018-08-28T10:55:54.388Z,1014.64
2018-08-28T10:56:54.408Z,1014.61
2018-08-28T10:57:54.442Z,1014.60
2018-08-28T10:58:54.472Z,1014.55
2018-08-28T10:59:54.498Z,1014.63
2018-08-28T11:00:54.526Z,1014.65
2018-08-28T11:01:54.560Z,1014.68
2018-08-28T11:02:54.574Z,1014.69
2018-08-28T11:03:54.613Z,1014.76
2018-08-28T11:04:54.646Z,1014.70
2018-08-28T11:05:54.669Z,1014.67
2018-08-28T11:06:54.692Z,1014.81
2018-08-28T11:07:54.718Z,1014.68
2018-08-28T11:08:54.741Z,1014.73
2018-08-28T11:09:54.768Z,1014.79
2018-08-28T11:10:54.809Z,1014.78
2018-08-28T11:11:54.835Z,1014.70
2018-08-28T11:12:54.858Z,1014.76
2018-08-28T11:13:54.888Z,1014.78
2018-08-28T11:14:54.915Z,1014.71
2018-08-28T11:15:54.959Z,1014.69
2018-08-28T11:16:54.978Z,1014.63
2018-08-28T11:17:55.004Z,1014.64
2018-08-28T11:18:55.026Z,1014.79
2018-08-28T11:19:55.065Z,1014.82
2018-08-28T11:20:55.107Z,1014.80
2018-08-28T11:21:55.119Z,1014.82
2018-08-28T11:22:55.185Z,1014.82
2018-08-28T11:23:55.182Z,1014.76
2018-08-28T11:24:55.219Z,1014.80
2018-08-28T11:25:55.246Z,1014.79
2018-08-28T11:26:55.277Z,1014.81
2018-08-28T11:27:55.314Z,1014.86
2018-08-28T11:28:55.337Z,1014.92
2018-08-28T11:29:55.387Z,1014.87
2018-08-28T11:30:55.403Z,1014.72
2018-08-28T11:31:55.442Z,1014.77
2018-08-28T11:32:55.472Z,1014.69
2018-08-28T11:33:55.496Z,1014.73
2018-08-28T11:34:55.543Z,1014.68
2018-08-28T11:35:55.556Z,1014.78
2018-08-28T11:36:55.597Z,1014.75
2018-08-28T11:37:55.623Z,1014.75
2018-08-28T11:38:55.656Z,1014.88
2018-08-28T11:39:55.685Z,1014.83
2018-08-28T11:40:55.723Z,1014.83
2018-08-28T11:41:55.749Z,1014.72
2018-08-28T11:42:55.791Z,1014.72
2018-08-28T11:43:55.819Z,1014.71
2018-08-28T11:44:55.838Z,1014.78
2018-08-28T11:45:55.877Z,1014.76
2018-08-28T11:46:55.911Z,1014.80
2018-08-28T11:47:55.944Z,1014.73
2018-08-28T11:48:55.972Z,1014.85
2018-08-28T11:49:56.013Z,1014.82
2018-08-28T11:50:56.033Z,1014.84
2018-08-28T11:51:56.071Z,1014.83
2018-08-28T11:52:56.101Z,1014.91
2018-08-28T11:53:56.129Z,1014.91
2018-08-28T11:54:56.163Z,1015.01
2018-08-28T11:55:56.188Z,1014.99
2018-08-28T11:56:56.212Z,1014.99
2018-08-28T11:57:56.263Z,1014.99
2018-08-28T11:58:56.280Z,1014.98
2018-08-28T11:59:56.305Z,1014.98
2018-08-28T12:00:56.342Z,1014.99
2018-08-28T12:01:56.416Z,1014.96
2018-08-28T12:02:56.398Z,1014.97
2018-08-28T12:03:56.425Z,1014.96
2018-08-28T12:04:56.489Z,1014.96
2018-08-28T12:05:56.486Z,1014.95